Time;durP1;ratioP1;P1;durP2;ratioP2;P2;SDS_P1;SDS_P2;PMS_P1;PMS_P2;Temp;Humidity;BMP_temperature;BMP_pressure;BME280_temperature;BME280_humidity;BME280_pressure;Samples;Min_cycle;Max_cycle;Signal;HPM_P1;HPM_P2
2022/12/29 00:01:37;;;;;;;0.70;0.70;;;14.10;99.90;;;;;;5116644;28;20217;-79
2022/12/29 00:04:06;;;;;;;0.60;0.60;;;14.20;99.90;;;;;;5120830;28;20210;-79
2022/12/29 00:06:34;;;;;;;1.00;0.60;;;14.20;99.90;;;;;;5110520;28;20194;-78
2022/12/29 00:09:01;;;;;;;0.57;0.57;;;14.20;99.90;;;;;;5107773;28;20207;-80
2022/12/29 00:11:28;;;;;;;0.50;0.50;;;14.20;99.90;;;;;;5103204;28;20202;-77
2022/12/29 00:16:43;;;;;;;0.67;0.67;;;14.30;99.90;;;;;;5112783;28;20213;-78
2022/12/29 00:35:07;;;;;;;0.47;0.37;;;14.30;99.90;;;;;;5098310;28;20225;-76
2022/12/29 00:35:59;;;;;;;0.50;0.50;;;14.40;99.90;;;;;;5115283;28;20198;-81
2022/12/29 00:44:06;;;;;;;0.60;0.60;;;14.30;99.90;;;;;;5112290;28;20213;-77
2022/12/29 00:46:33;;;;;;;0.57;0.57;;;14.20;99.90;;;;;;5090098;28;20271;-76
2022/12/29 00:51:48;;;;;;;0.53;0.53;;;14.20;99.90;;;;;;5103820;28;20194;-76
2022/12/29 00:54:17;;;;;;;1.07;0.70;;;14.10;99.90;;;;;;5116451;28;20305;-77
2022/12/29 00:56:46;;;;;;;0.80;0.80;;;14.10;99.90;;;;;;5117435;28;20251;-80
2022/12/29 00:59:13;;;;;;;0.60;0.60;;;14.10;99.90;;;;;;5118036;28;20251;-77
2022/12/29 01:01:40;;;;;;;0.50;0.50;;;14.10;99.90;;;;;;5117060;28;20218;-75
2022/12/29 01:04:08;;;;;;;0.50;0.50;;;14.00;99.90;;;;;;5116790;28;20278;-75
2022/12/29 01:06:36;;;;;;;0.63;0.63;;;14.00;99.90;;;;;;5115874;28;20193;-75
2022/12/29 01:11:49;;;;;;;0.60;0.60;;;14.00;99.90;;;;;;5110328;28;20213;-75
2022/12/29 01:14:17;;;;;;;0.50;0.50;;;14.00;99.90;;;;;;5111588;28;20260;-77
2022/12/29 01:16:44;;;;;;;0.40;0.40;;;14.00;99.90;;;;;;5098716;28;20248;-76
2022/12/29 01:19:11;;;;;;;0.60;0.60;;;14.00;99.90;;;;;;5095936;28;20252;-75
2022/12/29 01:21:38;;;;;;;0.50;0.50;;;14.00;99.90;;;;;;5097039;28;20241;-77
2022/12/29 01:24:05;;;;;;;0.87;0.70;;;14.00;99.90;;;;;;5097424;28;20219;-77
2022/12/29 01:26:32;;;;;;;0.80;0.80;;;14.00;99.90;;;;;;5098158;28;20244;-76
2022/12/29 01:29:01;;;;;;;0.40;0.40;;;13.90;99.90;;;;;;5097261;28;20206;-77
2022/12/29 01:31:28;;;;;;;0.50;0.50;;;13.90;99.90;;;;;;5096697;28;20228;-79
2022/12/29 01:33:55;;;;;;;0.67;0.67;;;13.90;99.90;;;;;;5096421;28;20234;-75
2022/12/29 01:36:22;;;;;;;0.50;0.50;;;13.90;99.90;;;;;;5099869;28;20210;-77
2022/12/29 01:38:49;;;;;;;0.87;0.60;;;13.90;99.90;;;;;;5117921;28;20201;-77
2022/12/29 01:41:17;;;;;;;0.50;0.50;;;13.90;99.90;;;;;;5106679;28;20222;-77
2022/12/29 01:43:47;;;;;;;0.60;0.60;;;14.00;99.90;;;;;;5097156;28;20647;-76
2022/12/29 01:46:26;;;;;;;0.60;0.60;;;14.00;99.90;;;;;;5098220;28;20191;-78
2022/12/29 01:48:56;;;;;;;0.73;0.50;;;14.00;99.90;;;;;;5113948;28;20189;-77
2022/12/29 01:51:25;;;;;;;0.60;0.60;;;14.00;99.90;;;;;;5108586;28;20272;-77
2022/12/29 01:53:54;;;;;;;1.33;0.60;;;14.10;99.90;;;;;;5104076;28;20243;-77
2022/12/29 01:56:22;;;;;;;0.40;0.40;;;14.10;99.90;;;;;;5103192;28;20223;-75
2022/12/29 01:58:55;;;;;;;0.50;0.50;;;14.00;99.90;;;;;;5096090;28;20259;-78
2022/12/29 02:01:23;;;;;;;0.40;0.40;;;14.10;99.90;;;;;;5096038;28;20211;-77
2022/12/29 02:03:52;;;;;;;0.60;0.60;;;14.00;99.90;;;;;;5103381;28;20263;-80
2022/12/29 02:06:23;;;;;;;0.63;0.63;;;14.00;99.90;;;;;;5119393;28;20223;-78
2022/12/29 02:08:53;;;;;;;0.53;0.53;;;14.00;99.90;;;;;;5107963;28;20555;-76
2022/12/29 02:11:21;;;;;;;0.60;0.60;;;14.00;99.90;;;;;;5106942;28;20556;-77
2022/12/29 02:13:48;;;;;;;0.40;0.40;;;14.00;99.90;;;;;;5117311;28;20782;-78
2022/12/29 02:16:34;;;;;;;0.57;0.50;;;14.00;99.90;;;;;;5100098;28;20210;-76
2022/12/29 02:19:24;;;;;;;0.57;0.57;;;14.00;99.90;;;;;;5097967;28;20190;-77
2022/12/29 02:22:06;;;;;;;0.67;0.67;;;14.00;99.90;;;;;;5106085;28;20222;-77
2022/12/29 02:25:01;;;;;;;0.50;0.50;;;14.00;99.90;;;;;;5104264;28;20218;-79
2022/12/29 02:27:54;;;;;;;2.27;0.63;;;14.00;99.90;;;;;;5101089;28;20204;-76
2022/12/29 02:30:44;;;;;;;0.70;0.70;;;14.00;99.90;;;;;;5077337;28;20187;-78
2022/12/29 02:33:22;;;;;;;0.57;0.57;;;14.00;99.90;;;;;;5076317;28;20223;-78
2022/12/29 02:35:56;;;;;;;0.60;0.60;;;13.90;99.90;;;;;;5094599;28;20202;-76
2022/12/29 02:38:32;;;;;;;0.70;0.70;;;13.90;99.90;;;;;;5098132;28;20206;-77
2022/12/29 02:41:07;;;;;;;0.60;0.60;;;14.00;99.90;;;;;;5095219;28;20627;-75
2022/12/29 02:43:40;;;;;;;0.50;0.50;;;14.00;99.90;;;;;;5108821;28;20213;-77
2022/12/29 02:46:16;;;;;;;0.60;0.60;;;13.90;99.90;;;;;;5104244;28;20198;-77
2022/12/29 02:48:48;;;;;;;0.60;0.60;;;13.90;99.90;;;;;;5096292;28;20205;-81
2022/12/29 02:51:21;;;;;;;0.50;0.50;;;13.90;99.90;;;;;;5114020;28;20197;-76
2022/12/29 02:56:32;;;;;;;0.50;0.50;;;14.00;99.90;;;;;;5088842;28;20196;-74
2022/12/29 02:58:59;;;;;;;0.43;0.43;;;13.90;99.90;;;;;;5096802;28;20252;-76
2022/12/29 03:02:16;;;;;;;0.90;0.90;;;13.90;99.90;;;;;;5091018;28;20313;-76
2022/12/29 03:04:39;;;;;;;0.70;0.70;;;13.90;99.90;;;;;;5098466;28;20213;-75
2022/12/29 03:07:21;;;;;;;0.40;0.40;;;13.80;99.90;;;;;;5116129;28;20802;-77
2022/12/29 03:09:57;;;;;;;0.50;0.50;;;13.80;99.90;;;;;;5114884;28;20193;-77
2022/12/29 03:18:16;;;;;;;0.60;0.60;;;13.70;99.90;;;;;;5114559;28;20208;-76
2022/12/29 03:20:51;;;;;;;0.60;0.60;;;13.60;99.90;;;;;;5113668;28;20174;-75
2022/12/29 03:23:18;;;;;;;0.87;0.40;;;13.60;99.90;;;;;;5113850;28;20229;-77
2022/12/29 03:25:50;;;;;;;0.43;0.43;;;13.60;99.90;;;;;;5115761;28;20282;-75
2022/12/29 03:28:22;;;;;;;0.40;0.40;;;13.60;99.90;;;;;;5091256;28;20238;-75
2022/12/29 03:30:49;;;;;;;0.63;0.63;;;13.60;99.90;;;;;;5073981;28;20221;-77
2022/12/29 03:33:22;;;;;;;0.73;0.60;;;13.60;99.90;;;;;;5075268;28;20223;-77
2022/12/29 03:35:51;;;;;;;0.50;0.50;;;13.60;99.90;;;;;;5076464;28;20199;-78
2022/12/29 03:38:23;;;;;;;0.43;0.43;;;13.60;99.90;;;;;;5075769;28;20286;-77
2022/12/29 03:40:56;;;;;;;0.60;0.60;;;13.50;99.90;;;;;;5104526;28;20715;-77
2022/12/29 03:43:24;;;;;;;0.53;0.53;;;13.50;99.90;;;;;;5113943;28;20295;-77
2022/12/29 03:45:51;;;;;;;0.57;0.57;;;13.50;99.90;;;;;;5107993;28;20619;-78
2022/12/29 03:48:19;;;;;;;0.60;0.60;;;13.50;99.90;;;;;;5098276;28;20199;-75
2022/12/29 03:50:46;;;;;;;0.87;0.70;;;13.50;99.90;;;;;;5111763;28;20201;-76
2022/12/29 03:53:13;;;;;;;0.63;0.63;;;13.50;99.90;;;;;;5117294;28;20350;-76
2022/12/29 03:55:40;;;;;;;0.50;0.50;;;13.50;99.90;;;;;;5118286;28;20267;-76
2022/12/29 03:58:07;;;;;;;0.40;0.40;;;13.60;99.90;;;;;;5104813;28;20247;-77
2022/12/29 04:00:34;;;;;;;0.57;0.57;;;13.60;99.90;;;;;;5101441;28;20250;-77
2022/12/29 04:03:01;;;;;;;0.50;0.50;;;13.60;99.90;;;;;;5100167;28;20256;-79
2022/12/29 04:05:31;;;;;;;0.57;0.57;;;13.60;99.90;;;;;;5107208;28;20198;-76
2022/12/29 04:07:58;;;;;;;0.60;0.60;;;13.60;99.90;;;;;;5109417;28;20285;-76
2022/12/29 04:10:25;;;;;;;0.50;0.50;;;13.50;99.90;;;;;;5097193;28;20247;-75
2022/12/29 04:12:52;;;;;;;0.60;0.60;;;13.60;99.90;;;;;;5097719;28;20215;-78
2022/12/29 04:15:19;;;;;;;0.60;0.60;;;13.50;99.90;;;;;;5097243;28;20272;-77
2022/12/29 04:17:46;;;;;;;0.40;0.40;;;13.60;99.90;;;;;;5110469;28;20206;-76
2022/12/29 04:23:02;;;;;;;0.93;0.80;;;13.50;99.90;;;;;;5114371;28;20221;-76
2022/12/29 04:25:29;;;;;;;0.63;0.63;;;13.50;99.90;;;;;;5101305;28;20247;-78
2022/12/29 04:27:56;;;;;;;0.50;0.50;;;13.50;99.90;;;;;;5114524;28;20206;-76
2022/12/29 04:30:23;;;;;;;0.70;0.70;;;13.40;99.90;;;;;;5095686;28;20547;-77
2022/12/29 04:32:50;;;;;;;0.50;0.50;;;13.30;99.90;;;;;;5095702;28;20210;-77
2022/12/29 04:35:17;;;;;;;0.70;0.70;;;13.30;99.90;;;;;;5095625;28;20655;-77
2022/12/29 04:37:44;;;;;;;0.40;0.40;;;13.30;99.90;;;;;;5096102;28;20222;-76
2022/12/29 04:40:13;;;;;;;0.53;0.53;;;13.30;99.90;;;;;;5095707;28;20268;-75
2022/12/29 04:42:40;;;;;;;0.60;0.60;;;13.20;99.90;;;;;;5096636;28;20303;-79
2022/12/29 04:45:08;;;;;;;0.70;0.57;;;13.20;99.90;;;;;;5097772;28;20578;-76
2022/12/29 04:47:35;;;;;;;0.53;0.53;;;13.20;99.90;;;;;;5097711;28;20198;-77
2022/12/29 04:50:02;;;;;;;0.63;0.63;;;13.20;99.90;;;;;;5098472;28;20241;-79
2022/12/29 04:52:29;;;;;;;0.50;0.50;;;13.20;99.90;;;;;;5098455;28;20276;-76
2022/12/29 04:54:56;;;;;;;0.50;0.50;;;13.20;99.90;;;;;;5095792;28;20222;-75
2022/12/29 04:57:25;;;;;;;0.63;0.63;;;13.20;99.90;;;;;;5096874;28;20247;-76
2022/12/29 04:59:52;;;;;;;0.60;0.60;;;13.30;99.90;;;;;;5096191;28;20203;-77
2022/12/29 05:02:19;;;;;;;0.57;0.57;;;13.30;99.90;;;;;;5096742;28;20559;-77
2022/12/29 05:04:46;;;;;;;0.47;0.47;;;13.30;99.90;;;;;;5096315;28;20272;-77
2022/12/29 05:07:13;;;;;;;0.60;0.60;;;13.30;99.90;;;;;;5098124;28;20202;-76
2022/12/29 05:09:40;;;;;;;0.60;0.60;;;13.30;99.90;;;;;;5107136;28;20207;-76
2022/12/29 05:12:08;;;;;;;0.50;0.50;;;13.30;99.90;;;;;;5096962;28;20210;-75
2022/12/29 05:14:36;;;;;;;0.50;0.50;;;13.30;99.90;;;;;;5095711;28;20624;-75
2022/12/29 05:17:03;;;;;;;0.60;0.60;;;13.30;99.90;;;;;;5111240;28;20244;-76
2022/12/29 05:19:31;;;;;;;0.63;0.63;;;13.30;99.90;;;;;;5099547;28;20216;-75
2022/12/29 05:21:58;;;;;;;0.70;0.70;;;13.30;99.90;;;;;;5098312;28;20229;-78
2022/12/29 05:24:25;;;;;;;0.60;0.60;;;13.30;99.90;;;;;;5106746;28;20222;-76
2022/12/29 05:26:52;;;;;;;1.00;0.70;;;13.30;99.90;;;;;;5095294;28;20207;-75
2022/12/29 05:29:19;;;;;;;0.50;0.50;;;13.30;99.90;;;;;;5086598;28;20950;-76
2022/12/29 05:31:47;;;;;;;0.63;0.63;;;13.30;99.90;;;;;;5104739;28;20623;-75
2022/12/29 05:34:15;;;;;;;0.50;0.50;;;13.30;99.90;;;;;;5104065;28;20730;-75
2022/12/29 05:36:42;;;;;;;0.70;0.70;;;13.30;99.90;;;;;;5114990;28;20247;-78
2022/12/29 05:39:09;;;;;;;0.70;0.70;;;13.30;99.90;;;;;;5114177;28;20194;-77
2022/12/29 05:41:36;;;;;;;0.60;0.60;;;13.40;99.90;;;;;;5113487;28;20549;-74
2022/12/29 05:44:03;;;;;;;0.47;0.47;;;13.40;99.90;;;;;;5094281;28;20233;-74
2022/12/29 05:46:30;;;;;;;1.02;0.90;;;13.40;99.90;;;;;;5095204;28;20203;-76
2022/12/29 05:48:59;;;;;;;0.57;0.57;;;13.50;99.90;;;;;;5111157;28;20202;-75
2022/12/29 05:51:26;;;;;;;0.60;0.60;;;13.50;99.90;;;;;;5114953;28;20634;-75
2022/12/29 05:53:53;;;;;;;0.70;0.70;;;13.50;99.90;;;;;;5104645;28;20223;-74
2022/12/29 05:56:20;;;;;;;0.60;0.60;;;13.60;99.90;;;;;;5096410;28;20202;-78
2022/12/29 05:58:47;;;;;;;0.77;0.77;;;13.60;99.90;;;;;;5098633;28;20190;-76
2022/12/29 06:01:14;;;;;;;0.80;0.80;;;13.70;99.90;;;;;;5113562;28;20258;-76
2022/12/29 06:03:41;;;;;;;1.07;0.90;;;13.60;99.90;;;;;;5116108;28;20222;-76
2022/12/29 06:06:09;;;;;;;0.80;0.80;;;13.60;99.90;;;;;;5106963;28;20210;-76
2022/12/29 06:08:36;;;;;;;0.63;0.63;;;13.70;99.90;;;;;;5098368;28;20247;-75
2022/12/29 06:11:03;;;;;;;0.60;0.60;;;13.60;99.90;;;;;;5115004;28;20206;-74
2022/12/29 06:13:30;;;;;;;0.60;0.60;;;13.70;99.90;;;;;;5109270;28;20225;-76
2022/12/29 06:15:57;;;;;;;0.90;0.90;;;13.70;99.90;;;;;;5115144;28;20202;-75
2022/12/29 06:18:24;;;;;;;0.80;0.80;;;13.70;99.90;;;;;;5114396;28;20190;-76
2022/12/29 06:20:51;;;;;;;1.03;0.70;;;13.70;99.90;;;;;;5107443;28;20198;-74
2022/12/29 06:23:19;;;;;;;0.70;0.70;;;13.70;99.90;;;;;;5114772;27;20274;-75
2022/12/29 06:25:49;;;;;;;0.50;0.50;;;13.80;99.90;;;;;;5109301;28;20550;-76
2022/12/29 06:28:16;;;;;;;0.73;0.73;;;13.80;99.90;;;;;;5103168;28;20282;-77
2022/12/29 06:30:45;;;;;;;0.90;0.90;;;13.70;99.90;;;;;;5109870;28;20255;-76
2022/12/29 06:33:12;;;;;;;0.80;0.80;;;13.70;99.90;;;;;;5104398;28;20800;-77
2022/12/29 06:35:39;;;;;;;0.73;0.73;;;13.70;99.90;;;;;;5110793;28;20194;-76
2022/12/29 06:38:09;;;;;;;0.80;0.80;;;13.70;99.90;;;;;;5106856;28;20194;-77
2022/12/29 06:40:38;;;;;;;0.60;0.60;;;13.70;99.90;;;;;;5094806;28;20198;-77
2022/12/29 06:43:05;;;;;;;0.90;0.90;;;13.70;99.90;;;;;;5094427;28;20230;-79
2022/12/29 06:45:32;;;;;;;0.73;0.73;;;13.70;99.90;;;;;;5107466;28;20206;-78
2022/12/29 06:47:59;;;;;;;0.87;0.80;;;13.60;99.90;;;;;;5106242;28;20242;-75
2022/12/29 06:50:26;;;;;;;0.70;0.70;;;13.60;99.90;;;;;;5111872;28;20202;-75
2022/12/29 06:52:53;;;;;;;0.70;0.70;;;13.60;99.90;;;;;;5113364;28;20201;-78
2022/12/29 06:55:21;;;;;;;0.70;0.70;;;13.60;99.90;;;;;;5098689;28;20211;-75
2022/12/29 06:57:49;;;;;;;0.57;0.57;;;13.70;99.90;;;;;;5110925;28;20681;-75
2022/12/29 07:00:17;;;;;;;1.00;1.00;;;13.80;99.90;;;;;;5108361;28;20195;-77
2022/12/29 07:02:44;;;;;;;0.70;0.70;;;13.80;99.90;;;;;;5105855;28;20285;-75
2022/12/29 07:05:11;;;;;;;1.13;0.63;;;13.80;99.90;;;;;;5097581;28;20207;-77
2022/12/29 07:07:38;;;;;;;0.80;0.80;;;13.90;99.90;;;;;;5104729;28;20198;-75
2022/12/29 07:10:06;;;;;;;0.80;0.80;;;13.90;99.90;;;;;;5109425;28;20647;-74
2022/12/29 07:12:33;;;;;;;0.77;0.77;;;13.90;99.90;;;;;;5097701;28;20259;-76
2022/12/29 07:15:02;;;;;;;0.60;0.60;;;13.90;99.90;;;;;;5093982;28;20603;-75
2022/12/29 07:17:29;;;;;;;0.70;0.70;;;13.90;99.90;;;;;;5097295;28;20217;-77
2022/12/29 07:19:56;;;;;;;0.70;0.70;;;14.00;99.90;;;;;;5108703;28;20654;-75
2022/12/29 07:22:25;;;;;;;0.83;0.70;;;14.10;99.90;;;;;;5102570;28;20207;-75
2022/12/29 07:24:54;;;;;;;0.60;0.60;;;14.10;99.90;;;;;;5097530;28;20214;-75
2022/12/29 07:27:21;;;;;;;0.80;0.80;;;14.10;99.90;;;;;;5098563;28;20203;-76
2022/12/29 07:29:48;;;;;;;0.80;0.70;;;14.20;99.90;;;;;;5104909;28;20194;-78
2022/12/29 07:32:17;;;;;;;0.70;0.70;;;14.10;99.90;;;;;;5097737;28;20207;-78
2022/12/29 07:34:45;;;;;;;0.50;0.50;;;14.20;99.90;;;;;;5104766;28;20593;-79
2022/12/29 07:37:13;;;;;;;0.60;0.60;;;14.20;99.90;;;;;;5108288;28;20213;-79
2022/12/29 07:39:40;;;;;;;0.73;0.73;;;14.20;99.90;;;;;;5106141;28;20227;-80
2022/12/29 07:42:07;;;;;;;0.60;0.60;;;14.30;99.90;;;;;;5106561;28;20229;-80
2022/12/29 07:44:36;;;;;;;0.63;0.63;;;14.30;99.90;;;;;;5106219;28;20229;-78
2022/12/29 07:47:03;;;;;;;0.60;0.60;;;14.30;99.90;;;;;;5109569;28;20203;-78
2022/12/29 07:49:32;;;;;;;0.60;0.60;;;14.30;99.90;;;;;;5110464;28;20194;-80
2022/12/29 07:51:59;;;;;;;0.73;0.73;;;14.40;99.90;;;;;;5108040;28;20205;-81
2022/12/29 07:54:29;;;;;;;0.60;0.60;;;14.40;99.90;;;;;;5108218;28;20236;-80
2022/12/29 07:56:57;;;;;;;0.60;0.60;;;14.40;99.90;;;;;;5099952;28;20221;-81
2022/12/29 07:59:24;;;;;;;0.60;0.60;;;14.40;99.90;;;;;;5110564;28;20236;-80
2022/12/29 08:01:51;;;;;;;0.80;0.80;;;14.50;99.90;;;;;;5103999;28;20549;-80
2022/12/29 08:04:18;;;;;;;0.93;0.80;;;14.50;99.90;;;;;;5108112;28;20218;-79
2022/12/29 08:06:47;;;;;;;0.70;0.70;;;14.50;99.90;;;;;;5102642;28;20218;-76
2022/12/29 08:09:14;;;;;;;0.73;0.73;;;14.50;99.90;;;;;;5095366;28;20256;-80
2022/12/29 08:11:43;;;;;;;0.70;0.63;;;14.60;99.90;;;;;;5096552;28;20293;-78
2022/12/29 08:14:18;;;;;;;0.60;0.60;;;14.60;99.90;;;;;;5095346;28;20229;-78
2022/12/29 08:16:45;;;;;;;0.70;0.70;;;14.60;99.90;;;;;;5094379;28;20186;-78
2022/12/29 08:19:12;;;;;;;0.90;0.90;;;14.70;99.90;;;;;;5093480;28;20651;-77
2022/12/29 08:21:39;;;;;;;0.70;0.70;;;14.70;99.90;;;;;;5092713;28;20536;-77
2022/12/29 08:24:09;;;;;;;0.70;0.70;;;14.70;99.90;;;;;;5093308;28;20283;-77
2022/12/29 08:26:36;;;;;;;0.97;0.70;;;14.70;99.90;;;;;;5093773;28;20229;-76
2022/12/29 08:29:03;;;;;;;0.70;0.70;;;14.80;99.90;;;;;;5092306;28;20605;-75
2022/12/29 08:31:30;;;;;;;0.80;0.80;;;14.80;99.90;;;;;;5095508;28;20195;-76
2022/12/29 08:33:57;;;;;;;0.70;0.70;;;14.80;99.90;;;;;;5098141;28;20820;-78
2022/12/29 08:36:24;;;;;;;0.77;0.77;;;14.80;99.90;;;;;;5098066;28;20206;-74
2022/12/29 08:38:51;;;;;;;0.93;0.93;;;14.80;99.90;;;;;;5084565;28;20260;-76
2022/12/29 08:41:19;;;;;;;0.73;0.60;;;14.80;99.90;;;;;;5096310;28;20198;-76
2022/12/29 08:43:47;;;;;;;1.17;0.80;;;14.80;99.90;;;;;;5096390;28;20223;-74
2022/12/29 08:46:15;;;;;;;0.60;0.60;;;14.80;99.90;;;;;;5095945;28;20290;-77
2022/12/29 08:48:42;;;;;;;0.60;0.60;;;14.80;99.90;;;;;;5095964;28;20183;-74
2022/12/29 08:51:10;;;;;;;0.60;0.60;;;14.80;99.90;;;;;;5099088;28;20635;-74
2022/12/29 08:53:37;;;;;;;0.67;0.67;;;14.80;99.90;;;;;;5109230;28;20268;-74
2022/12/29 08:56:04;;;;;;;0.50;0.50;;;14.80;99.90;;;;;;5090709;28;20215;-77
2022/12/29 08:58:33;;;;;;;0.53;0.53;;;14.80;99.90;;;;;;5098773;28;20262;-76
2022/12/29 09:01:01;;;;;;;0.80;0.80;;;14.80;99.90;;;;;;5107794;28;20256;-76
2022/12/29 09:03:30;;;;;;;0.73;0.73;;;14.80;99.90;;;;;;5106756;28;20221;-79
2022/12/29 09:05:57;;;;;;;1.23;0.80;;;14.80;99.90;;;;;;5109762;28;20272;-78
2022/12/29 09:08:24;;;;;;;1.03;0.60;;;14.80;99.90;;;;;;5104326;28;20198;-77
2022/12/29 09:10:52;;;;;;;0.80;0.80;;;14.80;99.90;;;;;;5110495;28;20217;-79
2022/12/29 09:13:19;;;;;;;1.03;0.97;;;14.80;99.90;;;;;;5103706;28;20230;-77
2022/12/29 09:15:48;;;;;;;0.57;0.57;;;14.80;99.90;;;;;;5111601;28;20202;-78
2022/12/29 09:18:15;;;;;;;0.73;0.73;;;14.80;99.90;;;;;;5113518;28;20255;-76
2022/12/29 09:20:45;;;;;;;0.70;0.70;;;14.80;99.90;;;;;;5112120;28;20199;-76
2022/12/29 09:23:12;;;;;;;0.70;0.70;;;14.80;99.90;;;;;;5117122;28;20740;-77
2022/12/29 09:25:38;;;;;;;0.60;0.60;;;14.80;99.90;;;;;;5111425;28;20204;-75
2022/12/29 09:28:07;;;;;;;0.70;0.70;;;14.90;99.90;;;;;;5113335;28;20211;-76
2022/12/29 09:30:34;;;;;;;0.45;0.45;;;14.90;99.90;;;;;;5110992;27;20250;-76
2022/12/29 09:33:03;;;;;;;0.77;0.70;;;15.00;99.90;;;;;;5100084;28;20302;-77
2022/12/29 09:35:30;;;;;;;0.80;0.80;;;15.00;99.90;;;;;;5097267;28;20678;-75
2022/12/29 09:37:57;;;;;;;0.73;0.73;;;15.00;99.90;;;;;;5097663;28;20214;-77
2022/12/29 09:40:29;;;;;;;0.80;0.80;;;15.00;99.90;;;;;;5111190;28;20624;-77
2022/12/29 09:43:26;;;;;;;0.57;0.57;;;15.00;99.90;;;;;;5102055;28;20662;-79
2022/12/29 09:45:58;;;;;;;0.60;0.60;;;15.00;99.90;;;;;;5058380;28;20207;-73
2022/12/29 09:48:31;;;;;;;0.50;0.50;;;15.00;99.90;;;;;;5098592;28;20247;-75
2022/12/29 09:51:03;;;;;;;0.60;0.60;;;15.00;99.90;;;;;;5097378;28;20206;-77
2022/12/29 09:53:38;;;;;;;0.70;0.70;;;15.00;99.90;;;;;;5092319;28;20271;-78
2022/12/29 09:56:11;;;;;;;1.07;1.00;;;15.00;99.90;;;;;;5099537;28;20218;-77
2022/12/29 09:58:42;;;;;;;0.87;0.80;;;15.00;99.90;;;;;;5112088;28;20209;-76
2022/12/29 10:01:22;;;;;;;0.60;0.60;;;15.10;99.90;;;;;;5101982;28;20217;-80
2022/12/29 10:03:53;;;;;;;0.60;0.60;;;15.10;99.90;;;;;;5110684;28;20226;-78
2022/12/29 10:06:25;;;;;;;0.70;0.70;;;15.20;99.90;;;;;;5102972;28;20198;-77
2022/12/29 10:09:01;;;;;;;0.50;0.50;;;15.30;99.90;;;;;;5111946;28;20197;-77
2022/12/29 10:11:41;;;;;;;0.60;0.60;;;15.30;99.90;;;;;;5113812;28;20194;-77
2022/12/29 10:14:27;;;;;;;0.77;0.77;;;15.30;99.90;;;;;;5107977;28;20270;-76
2022/12/29 10:17:02;;;;;;;0.70;0.70;;;15.40;99.90;;;;;;5103296;28;20275;-76
2022/12/29 10:19:56;;;;;;;0.60;0.60;;;15.40;99.90;;;;;;5112515;28;20194;-78
2022/12/29 10:25:22;;;;;;;1.00;0.70;;;15.40;99.90;;;;;;5085659;28;20218;-78
2022/12/29 10:27:50;;;;;;;0.90;0.90;;;15.50;99.90;;;;;;5102830;28;20255;-77
2022/12/29 10:30:18;;;;;;;0.77;0.77;;;15.50;99.90;;;;;;5104096;28;20202;-75
2022/12/29 10:32:50;;;;;;;0.70;0.70;;;15.40;99.90;;;;;;5098913;28;20218;-76
2022/12/29 10:35:28;;;;;;;0.80;0.80;;;15.40;99.90;;;;;;5099457;28;20216;-76
2022/12/29 10:37:59;;;;;;;0.80;0.80;;;15.40;99.90;;;;;;5115143;28;20242;-76
2022/12/29 10:40:30;;;;;;;0.70;0.70;;;15.30;99.90;;;;;;5115654;28;20206;-76
2022/12/29 10:42:59;;;;;;;0.80;0.80;;;15.30;99.90;;;;;;5096735;28;20206;-78
2022/12/29 10:45:32;;;;;;;0.80;0.80;;;15.30;99.90;;;;;;5109483;28;20220;-76
2022/12/29 10:48:03;;;;;;;0.70;0.70;;;15.20;99.90;;;;;;5097407;28;20214;-76
2022/12/29 10:50:31;;;;;;;0.80;0.80;;;15.20;99.90;;;;;;5106658;28;20206;-75
2022/12/29 10:53:01;;;;;;;0.90;0.90;;;15.10;99.90;;;;;;5096293;28;20202;-76
2022/12/29 10:55:33;;;;;;;0.80;0.80;;;15.10;99.90;;;;;;5096849;28;20205;-76
2022/12/29 10:58:04;;;;;;;0.80;0.80;;;15.10;99.90;;;;;;5092430;28;20236;-76
2022/12/29 11:00:34;;;;;;;0.90;0.90;;;15.20;99.90;;;;;;5099285;28;20196;-76
2022/12/29 11:03:24;;;;;;;0.90;0.90;;;15.20;99.90;;;;;;5115574;28;20217;-76
2022/12/29 11:05:58;;;;;;;0.70;0.70;;;15.20;99.90;;;;;;5090967;28;20726;-76
2022/12/29 11:08:28;;;;;;;0.77;0.77;;;15.20;99.90;;;;;;5088573;28;20210;-77
2022/12/29 11:11:01;;;;;;;0.80;0.80;;;15.10;99.90;;;;;;5087821;28;20191;-76
2022/12/29 11:13:30;;;;;;;0.50;0.50;;;15.00;99.90;;;;;;5098877;28;20245;-75
2022/12/29 11:15:57;;;;;;;0.53;0.53;;;15.00;99.90;;;;;;5110403;28;20198;-76
2022/12/29 11:18:25;;;;;;;0.73;0.73;;;15.00;99.90;;;;;;5098323;28;20205;-77
2022/12/29 11:20:55;;;;;;;0.60;0.60;;;15.00;99.90;;;;;;5102939;28;20195;-76
2022/12/29 11:23:31;;;;;;;0.60;0.60;;;15.00;99.90;;;;;;5108432;28;20227;-77
2022/12/29 11:26:13;;;;;;;0.60;0.60;;;15.00;99.90;;;;;;5113717;28;20201;-75
2022/12/29 11:28:43;;;;;;;0.60;0.60;;;15.00;99.90;;;;;;5093595;28;20632;-75
2022/12/29 11:31:10;;;;;;;0.67;0.67;;;15.00;99.90;;;;;;5095291;28;20617;-76
2022/12/29 11:33:41;;;;;;;0.50;0.50;;;15.10;99.90;;;;;;5095588;28;20905;-78
2022/12/29 11:36:15;;;;;;;0.70;0.70;;;15.00;99.90;;;;;;5112285;28;20574;-75
2022/12/29 11:38:47;;;;;;;0.70;0.70;;;15.10;99.90;;;;;;5115131;28;20179;-75
2022/12/29 11:41:21;;;;;;;0.40;0.40;;;15.00;99.90;;;;;;5111425;28;20199;-76
2022/12/29 11:43:49;;;;;;;1.03;0.60;;;15.00;99.90;;;;;;5095047;28;20256;-76
2022/12/29 11:46:22;;;;;;;0.70;0.70;;;15.00;99.90;;;;;;5098098;28;20203;-76
2022/12/29 11:48:49;;;;;;;0.50;0.50;;;15.00;99.90;;;;;;5110200;28;20194;-75
2022/12/29 11:51:26;;;;;;;0.50;0.50;;;15.00;99.90;;;;;;5091989;28;20191;-75
2022/12/29 11:53:57;;;;;;;0.60;0.60;;;15.00;99.90;;;;;;5074608;28;20714;-77
2022/12/29 11:56:35;;;;;;;0.60;0.60;;;15.10;99.90;;;;;;5093950;28;20225;-76
2022/12/29 11:59:37;;;;;;;0.60;0.60;;;15.10;99.90;;;;;;5088030;28;20281;-76
2022/12/29 12:02:16;;;;;;;0.60;0.60;;;15.10;99.90;;;;;;5095641;28;20190;-75
2022/12/29 12:04:43;;;;;;;0.60;0.60;;;15.20;99.90;;;;;;5091648;28;20218;-77
2022/12/29 12:07:15;;;;;;;0.60;0.60;;;15.20;99.90;;;;;;5088724;28;20393;-75
2022/12/29 12:09:48;;;;;;;0.70;0.70;;;15.30;99.90;;;;;;5098307;28;20213;-75
2022/12/29 12:12:24;;;;;;;0.70;0.67;;;15.30;99.90;;;;;;5105493;28;20224;-75
2022/12/29 12:14:59;;;;;;;0.43;0.43;;;15.30;99.90;;;;;;5107317;28;20221;-75
2022/12/29 12:17:37;;;;;;;0.68;0.68;;;15.40;99.90;;;;;;5099180;28;20278;-76
2022/12/29 12:20:17;;;;;;;0.47;0.47;;;15.30;99.90;;;;;;5105802;28;20198;-76
2022/12/29 12:22:52;;;;;;;0.80;0.80;;;15.30;99.90;;;;;;5098561;28;20191;-76
2022/12/29 12:25:22;;;;;;;0.30;0.30;;;15.30;99.90;;;;;;5092281;28;20214;-75
2022/12/29 12:27:53;;;;;;;0.50;0.50;;;15.30;99.90;;;;;;5099026;28;20210;-75
2022/12/29 12:30:22;;;;;;;0.40;0.40;;;15.30;99.90;;;;;;5100924;28;20202;-74
2022/12/29 12:32:56;;;;;;;0.47;0.47;;;15.40;99.90;;;;;;5100565;28;20211;-75
2022/12/29 12:35:38;;;;;;;0.50;0.50;;;15.40;99.90;;;;;;5103829;28;20194;-77
2022/12/29 12:38:20;;;;;;;0.50;0.50;;;15.40;99.90;;;;;;5102570;28;20264;-76
2022/12/29 12:41:03;;;;;;;0.50;0.50;;;15.30;99.90;;;;;;5094514;28;20214;-77
2022/12/29 12:43:41;;;;;;;0.70;0.70;;;15.20;99.90;;;;;;5085630;28;20219;-76
2022/12/29 12:46:39;;;;;;;0.60;0.60;;;15.10;99.90;;;;;;5077847;28;20298;-76
2022/12/29 12:49:30;;;;;;;0.60;0.60;;;15.10;99.90;;;;;;5093132;28;20790;-75
2022/12/29 12:52:09;;;;;;;0.70;0.70;;;15.20;99.90;;;;;;5098354;28;20187;-75
2022/12/29 12:54:57;;;;;;;0.50;0.50;;;15.10;99.90;;;;;;5109881;28;20300;-75
2022/12/29 12:57:38;;;;;;;0.70;0.70;;;15.10;99.90;;;;;;5119040;28;20243;-73
2022/12/29 13:00:12;;;;;;;0.60;0.60;;;15.00;99.90;;;;;;5117177;28;20214;-76
2022/12/29 13:02:52;;;;;;;0.77;0.77;;;15.00;99.90;;;;;;5101761;28;20202;-78
2022/12/29 13:05:32;;;;;;;0.57;0.57;;;15.00;99.90;;;;;;5106982;28;20202;-76
2022/12/29 13:08:26;;;;;;;0.73;0.73;;;15.00;99.90;;;;;;5100477;28;20796;-75
2022/12/29 13:11:03;;;;;;;0.60;0.60;;;15.00;99.90;;;;;;5094259;28;20206;-78
2022/12/29 13:13:57;;;;;;;0.93;0.93;;;15.00;99.90;;;;;;5100402;28;20233;-78
2022/12/29 13:16:33;;;;;;;0.73;0.73;;;15.00;99.90;;;;;;5100793;28;20197;-80
2022/12/29 13:19:06;;;;;;;0.70;0.70;;;15.00;99.90;;;;;;5106899;28;20198;-76
2022/12/29 13:21:51;;;;;;;0.60;0.57;;;15.00;99.90;;;;;;5101798;28;20230;-75
2022/12/29 13:24:25;;;;;;;2.23;0.70;;;15.00;99.90;;;;;;5104469;28;20257;-77
2022/12/29 13:27:00;;;;;;;0.60;0.60;;;15.00;99.90;;;;;;5106277;28;20263;-76
2022/12/29 13:29:36;;;;;;;0.60;0.60;;;15.00;99.90;;;;;;5116598;28;20201;-76
2022/12/29 13:32:22;;;;;;;0.50;0.50;;;15.00;99.90;;;;;;5109800;28;20206;-76
2022/12/29 13:35:00;;;;;;;0.40;0.40;;;15.10;99.90;;;;;;5105349;28;20290;-76
2022/12/29 13:37:32;;;;;;;0.47;0.47;;;15.10;99.90;;;;;;5098286;28;20233;-77
2022/12/29 13:40:04;;;;;;;0.70;0.70;;;14.80;99.90;;;;;;5099094;28;20202;-77
2022/12/29 13:42:34;;;;;;;0.43;0.43;;;15.00;99.90;;;;;;5107518;28;20208;-75
2022/12/29 13:45:06;;;;;;;0.60;0.60;;;15.00;99.90;;;;;;5097749;28;20218;-76
2022/12/29 13:47:38;;;;;;;0.70;0.70;;;14.90;99.90;;;;;;5102734;28;20198;-78
2022/12/29 13:50:19;;;;;;;0.70;0.70;;;15.00;99.90;;;;;;5100017;28;20179;-74